createdAt,value
2023-03-13T06:05:49.609Z,32.80
2023-03-13T06:08:20.246Z,32.80
2023-03-13T06:10:50.684Z,32.70
2023-03-13T06:13:20.379Z,32.70
2023-03-13T06:16:00.021Z,32.60
2023-03-13T06:18:29.210Z,32.70
2023-03-13T06:21:00.634Z,32.70
2023-03-13T06:23:29.748Z,32.70
2023-03-13T06:25:58.687Z,32.70
2023-03-13T06:28:30.780Z,32.80
2023-03-13T06:31:04.774Z,32.90
2023-03-13T06:33:34.202Z,33.00
2023-03-13T06:36:03.743Z,33.10
2023-03-13T06:38:33.167Z,33.20
2023-03-13T06:41:02.246Z,33.40
2023-03-13T06:43:31.425Z,33.40
2023-03-13T06:46:06.372Z,33.40
2023-03-13T06:48:36.180Z,33.40
2023-03-13T06:51:05.269Z,33.30
2023-03-13T06:53:34.187Z,33.30
2023-03-13T06:56:03.583Z,33.30
2023-03-13T06:58:33.106Z,33.30
2023-03-13T07:01:09.307Z,33.30
2023-03-13T07:03:39.510Z,33.20
2023-03-13T07:06:08.898Z,33.30
2023-03-13T07:08:38.392Z,33.20
2023-03-13T07:11:10.622Z,33.20
2023-03-13T07:13:40.407Z,33.00
2023-03-13T07:16:12.592Z,32.90
2023-03-13T07:18:45.787Z,32.80
2023-03-13T07:21:15.542Z,32.70
2023-03-13T07:23:47.393Z,32.60
2023-03-13T07:26:17.320Z,32.60
2023-03-13T07:28:46.268Z,32.60
2023-03-13T07:31:20.587Z,32.50
2023-03-13T07:33:57.362Z,32.40
2023-03-13T07:36:26.426Z,32.30
2023-03-13T07:38:55.712Z,32.20
2023-03-13T07:41:25.018Z,32.20
2023-03-13T07:43:54.064Z,32.20
2023-03-13T07:46:23.055Z,32.30
2023-03-13T07:48:53.737Z,32.30
2023-03-13T07:51:40.559Z,32.30
2023-03-13T07:54:12.036Z,32.40
2023-03-13T07:56:41.457Z,32.50
2023-03-13T07:59:10.552Z,32.50
2023-03-13T08:01:39.488Z,32.50
2023-03-13T08:04:08.786Z,32.50
2023-03-13T08:06:37.842Z,32.60
2023-03-13T08:09:06.955Z,32.60
2023-03-13T08:11:36.186Z,32.60
2023-03-13T08:14:05.173Z,32.50
2023-03-13T08:16:35.934Z,32.60
2023-03-13T08:19:07.169Z,32.60
2023-03-13T08:21:38.140Z,32.50
2023-03-13T08:24:09.371Z,32.50
2023-03-13T08:26:40.020Z,32.50
2023-03-13T08:29:15.099Z,32.50
2023-03-13T08:31:53.687Z,32.40
2023-03-13T08:34:22.664Z,32.40
2023-03-13T08:36:51.593Z,32.30
2023-03-13T08:39:22.031Z,32.20
2023-03-13T08:41:51.414Z,32.10
2023-03-13T08:44:21.819Z,32.10
2023-03-13T08:46:50.745Z,31.90
2023-03-13T08:49:19.806Z,31.80
2023-03-13T08:51:51.621Z,31.80
2023-03-13T08:54:20.501Z,31.80
2023-03-13T08:56:49.637Z,31.80
2023-03-13T08:59:18.600Z,31.70
2023-03-13T09:01:47.597Z,31.60
2023-03-13T09:04:17.604Z,31.60
2023-03-13T09:06:46.596Z,31.50
2023-03-13T09:09:15.702Z,31.50
2023-03-13T09:11:44.609Z,31.40
2023-03-13T09:14:13.761Z,31.40
2023-03-13T09:16:42.852Z,31.20
2023-03-13T09:19:11.724Z,31.20
2023-03-13T09:21:40.863Z,31.20
2023-03-13T09:24:10.123Z,31.20
2023-03-13T09:26:42.652Z,31.10
2023-03-13T09:29:15.457Z,31.10
2023-03-13T09:31:44.510Z,31.10
2023-03-13T09:34:13.609Z,31.00
2023-03-13T09:36:42.506Z,31.00
2023-03-13T09:39:11.742Z,30.90
2023-03-13T09:41:56.502Z,30.80
2023-03-13T09:44:34.396Z,30.70
2023-03-13T09:47:38.192Z,30.60
2023-03-13T09:50:12.949Z,30.40
2023-03-13T09:52:42.983Z,30.30
2023-03-13T09:55:34.955Z,30.20
2023-03-13T09:58:23.161Z,30.10
2023-03-13T10:01:04.896Z,30.00
2023-03-13T10:03:41.700Z,29.90
2023-03-13T10:06:25.840Z,29.80
2023-03-13T10:08:54.798Z,29.70
2023-03-13T10:11:41.558Z,29.60
2023-03-13T10:14:16.255Z,29.50
2023-03-13T10:17:07.597Z,29.40
2023-03-13T10:19:48.540Z,29.30
2023-03-13T10:22:21.599Z,29.30
2023-03-13T10:25:12.716Z,29.20
2023-03-13T10:27:52.107Z,29.10
2023-03-13T10:30:39.879Z,29.10
2023-03-13T10:33:14.515Z,29.00
2023-03-13T10:35:44.828Z,28.90
2023-03-13T10:38:24.612Z,28.80
2023-03-13T10:41:03.608Z,28.80
2023-03-13T10:43:32.530Z,28.70
2023-03-13T10:46:02.485Z,28.70
2023-03-13T10:48:39.199Z,28.70
2023-03-13T10:51:23.877Z,28.50
2023-03-13T10:53:52.855Z,28.50
2023-03-13T10:56:32.123Z,28.50
2023-03-13T10:59:02.038Z,28.40
2023-03-13T11:01:43.899Z,28.30
2023-03-13T11:04:36.765Z,28.30
2023-03-13T11:07:18.387Z,28.20
2023-03-13T11:10:17.817Z,28.20
2023-03-13T11:12:48.904Z,28.10
2023-03-13T11:15:39.001Z,28.10
2023-03-13T11:18:23.906Z,28.10
2023-03-13T11:20:53.639Z,28.00
2023-03-13T11:23:26.749Z,28.00
2023-03-13T11:26:17.034Z,27.90
2023-03-13T11:28:55.111Z,27.90
2023-03-13T11:31:33.011Z,27.90
2023-03-13T11:34:13.063Z,27.80
2023-03-13T11:36:58.262Z,27.70
2023-03-13T11:39:48.998Z,27.70
2023-03-13T11:42:20.725Z,27.60
2023-03-13T11:45:05.084Z,27.60
2023-03-13T11:47:48.503Z,27.50
2023-03-13T11:50:41.928Z,27.50
2023-03-13T11:53:26.074Z,27.50
2023-03-13T11:55:54.603Z,27.40
2023-03-13T11:58:45.447Z,27.40
2023-03-13T12:01:20.745Z,27.30
2023-03-13T12:04:06.579Z,27.30
2023-03-13T12:06:56.823Z,27.30
2023-03-13T12:09:34.299Z,27.20
2023-03-13T12:12:31.815Z,27.20
2023-03-13T12:15:04.278Z,27.20
2023-03-13T12:17:41.669Z,27.20
2023-03-13T12:20:21.401Z,27.10
2023-03-13T12:22:56.255Z,27.10
2023-03-13T12:25:33.332Z,27.00
2023-03-13T12:28:25.895Z,27.00
2023-03-13T12:31:05.835Z,26.90
2023-03-13T12:33:47.093Z,26.90
2023-03-13T12:36:53.165Z,26.90
2023-03-13T12:39:41.381Z,26.80
2023-03-13T12:42:28.319Z,26.80
2023-03-13T12:44:59.073Z,26.70
2023-03-13T12:47:35.089Z,26.70
2023-03-13T12:50:09.826Z,26.70
2023-03-13T12:52:52.265Z,26.70
2023-03-13T12:55:28.047Z,26.60
2023-03-13T12:58:16.134Z,26.60
2023-03-13T13:00:48.064Z,26.50
2023-03-13T13:03:29.005Z,26.50
2023-03-13T13:06:17.902Z,26.50
2023-03-13T13:08:55.994Z,26.40
2023-03-13T13:11:40.566Z,26.40
2023-03-13T13:14:18.715Z,26.30
2023-03-13T13:17:02.352Z,26.30
2023-03-13T13:19:43.453Z,26.30
2023-03-13T13:22:39.497Z,26.20
2023-03-13T13:25:35.071Z,26.20
2023-03-13T13:28:33.512Z,26.10
2023-03-13T13:31:03.610Z,26.10
2023-03-13T13:33:36.680Z,26.10
2023-03-13T13:36:11.457Z,26.00
2023-03-13T13:38:44.060Z,26.00
2023-03-13T13:41:12.988Z,26.00
2023-03-13T13:43:50.274Z,25.90
2023-03-13T13:46:36.118Z,25.90
2023-03-13T13:49:20.565Z,25.90
2023-03-13T13:52:09.738Z,25.80
2023-03-13T13:54:46.571Z,25.80
2023-03-13T13:57:24.043Z,25.80
2023-03-13T13:59:54.959Z,25.80
2023-03-13T14:02:36.258Z,25.70
2023-03-13T14:05:16.951Z,25.70
2023-03-13T14:08:15.122Z,25.70
2023-03-13T14:10:52.323Z,25.60
2023-03-13T14:13:23.194Z,25.60
2023-03-13T14:15:57.063Z,25.60
2023-03-13T14:18:33.283Z,25.60
2023-03-13T14:21:16.576Z,25.60
2023-03-13T14:23:47.551Z,25.50
2023-03-13T14:26:21.196Z,25.50
2023-03-13T14:28:53.238Z,25.50
2023-03-13T14:31:30.844Z,25.40
2023-03-13T14:34:06.837Z,25.40
2023-03-13T14:36:57.129Z,25.40
2023-03-13T14:39:32.773Z,25.30
2023-03-13T14:42:06.280Z,25.30
2023-03-13T14:44:36.582Z,25.30
2023-03-13T14:47:26.988Z,25.30
2023-03-13T14:50:11.138Z,25.20
2023-03-13T14:52:46.300Z,25.20
2023-03-13T14:55:31.272Z,25.20
2023-03-13T14:58:05.266Z,25.20
2023-03-13T15:00:35.963Z,25.10
2023-03-13T15:03:17.953Z,25.10
2023-03-13T15:05:48.929Z,25.10
2023-03-13T15:08:28.086Z,25.10
2023-03-13T15:10:57.246Z,25.10
2023-03-13T15:13:38.491Z,25.00
2023-03-13T15:16:21.471Z,25.00
2023-03-13T15:18:52.166Z,24.90
2023-03-13T15:21:28.134Z,24.90
2023-03-13T15:24:03.158Z,24.90
2023-03-13T15:26:32.229Z,24.90
2023-03-13T15:29:01.126Z,24.90
2023-03-13T15:31:31.110Z,24.80
2023-03-13T15:34:02.346Z,24.80
2023-03-13T15:36:33.242Z,24.80
2023-03-13T15:39:02.252Z,24.80
2023-03-13T15:41:31.286Z,24.70
2023-03-13T15:44:00.250Z,24.70
2023-03-13T15:46:30.580Z,24.60
2023-03-13T15:48:59.472Z,24.60
2023-03-13T15:51:28.961Z,24.60
2023-03-13T15:53:57.855Z,24.60
2023-03-13T15:56:29.846Z,24.50
2023-03-13T15:58:59.039Z,24.50
2023-03-13T16:01:29.331Z,24.50
2023-03-13T16:03:59.322Z,24.50
2023-03-13T16:06:37.169Z,24.50
2023-03-13T16:09:10.400Z,24.40
2023-03-13T16:11:39.339Z,24.40
2023-03-13T16:14:08.289Z,24.40
2023-03-13T16:16:38.011Z,24.30
2023-03-13T16:19:08.601Z,24.30
2023-03-13T16:21:41.364Z,24.30
2023-03-13T16:24:10.309Z,24.20
2023-03-13T16:26:39.313Z,24.20
2023-03-13T16:29:08.305Z,24.20
2023-03-13T16:31:37.553Z,24.20
2023-03-13T16:34:06.792Z,24.10
2023-03-13T16:36:36.313Z,24.10
2023-03-13T16:39:10.159Z,24.10
2023-03-13T16:41:39.516Z,24.00
2023-03-13T16:44:08.545Z,24.00
2023-03-13T16:46:42.344Z,24.00
2023-03-13T16:49:16.501Z,23.90
2023-03-13T16:51:45.427Z,24.00
2023-03-13T16:54:14.371Z,23.90
2023-03-13T16:56:44.600Z,23.90
2023-03-13T16:59:18.962Z,23.90
2023-03-13T17:01:48.385Z,23.80
2023-03-13T17:04:17.351Z,23.80
2023-03-13T17:06:47.178Z,23.80
2023-03-13T17:09:18.752Z,23.80
2023-03-13T17:11:47.774Z,23.80
2023-03-13T17:14:16.714Z,23.80
2023-03-13T17:16:47.474Z,23.70
2023-03-13T17:19:17.942Z,23.70
2023-03-13T17:21:46.832Z,23.70
2023-03-13T17:24:15.743Z,23.70
2023-03-13T17:26:44.733Z,23.70
2023-03-13T17:29:19.877Z,23.70
2023-03-13T17:31:48.840Z,23.60
2023-03-13T17:34:17.985Z,23.60
2023-03-13T17:36:48.564Z,23.60
2023-03-13T17:39:17.499Z,23.60
2023-03-13T17:41:46.934Z,23.60
2023-03-13T17:44:15.843Z,23.60
2023-03-13T17:46:47.749Z,23.50
2023-03-13T17:49:19.200Z,23.50
2023-03-13T17:51:50.288Z,23.50
2023-03-13T17:54:19.972Z,23.40
2023-03-13T17:56:48.879Z,23.50
2023-03-13T17:59:20.940Z,23.50
2023-03-13T18:01:50.083Z,23.40
2023-03-13T18:04:19.094Z,23.40
2023-03-13T18:06:51.274Z,23.40
2023-03-13T18:09:22.191Z,23.40
2023-03-13T18:11:51.849Z,23.40
2023-03-13T18:14:20.849Z,23.40
2023-03-13T18:16:51.565Z,23.30
2023-03-13T18:19:22.677Z,23.30
2023-03-13T18:21:53.732Z,23.30
2023-03-13T18:24:23.176Z,23.20
2023-03-13T18:26:52.753Z,23.20
2023-03-13T18:29:27.288Z,23.20
2023-03-13T18:31:59.614Z,23.10
2023-03-13T18:34:29.808Z,23.20
2023-03-13T18:37:04.646Z,23.10
2023-03-13T18:39:34.701Z,23.10
2023-03-13T18:42:03.605Z,23.10
2023-03-13T18:44:32.470Z,23.10
2023-03-13T18:47:01.372Z,23.10
2023-03-13T18:49:30.266Z,23.10
2023-03-13T18:51:59.572Z,23.10
2023-03-13T18:54:28.459Z,23.10
2023-03-13T18:56:57.389Z,23.00
2023-03-13T18:59:27.237Z,23.00
2023-03-13T19:01:56.224Z,23.00
2023-03-13T19:04:25.254Z,23.00
2023-03-13T19:06:54.879Z,22.90
2023-03-13T19:09:42.561Z,22.90
2023-03-13T19:12:13.913Z,22.90
2023-03-13T19:14:43.053Z,22.90
2023-03-13T19:17:27.961Z,22.80
2023-03-13T19:20:00.127Z,22.80
2023-03-13T19:22:29.043Z,22.80
2023-03-13T19:24:57.952Z,22.70
2023-03-13T19:27:26.854Z,22.70
2023-03-13T19:29:55.748Z,22.70
2023-03-13T19:32:24.640Z,22.70
2023-03-13T19:34:53.538Z,22.70
2023-03-13T19:37:22.439Z,22.60
2023-03-13T19:39:51.869Z,22.60
2023-03-13T19:42:20.800Z,22.60
2023-03-13T19:44:49.689Z,22.60
2023-03-13T19:47:18.675Z,22.60
2023-03-13T19:49:50.899Z,22.60
2023-03-13T19:52:20.189Z,22.60
2023-03-13T19:54:49.142Z,22.50
2023-03-13T19:57:18.084Z,22.50
2023-03-13T19:59:46.997Z,22.50
2023-03-13T20:02:16.027Z,22.50
2023-03-13T20:04:46.916Z,22.50
2023-03-13T20:07:15.887Z,22.40
2023-03-13T20:09:44.823Z,22.40
2023-03-13T20:12:13.781Z,22.40
2023-03-13T20:14:42.678Z,22.30
2023-03-13T20:17:11.565Z,22.30
2023-03-13T20:19:40.566Z,22.30
2023-03-13T20:22:10.830Z,22.30
2023-03-13T20:24:39.949Z,22.30
2023-03-13T20:27:08.851Z,22.20
2023-03-13T20:29:37.816Z,22.20
2023-03-13T20:32:07.064Z,22.20
2023-03-13T20:34:36.566Z,22.10
2023-03-13T20:37:05.442Z,22.10
2023-03-13T20:39:35.976Z,22.10
2023-03-13T20:42:05.065Z,22.00
2023-03-13T20:44:33.943Z,22.00
2023-03-13T20:47:02.837Z,22.00
2023-03-13T20:49:31.779Z,22.00
2023-03-13T20:52:00.644Z,22.00
2023-03-13T20:54:29.536Z,21.90
2023-03-13T20:56:59.239Z,21.90
2023-03-13T20:59:28.229Z,21.90
2023-03-13T21:01:57.121Z,21.90
2023-03-13T21:04:26.189Z,21.90
2023-03-13T21:06:55.337Z,21.80
2023-03-13T21:09:24.225Z,21.80
2023-03-13T21:11:53.863Z,21.80
2023-03-13T21:14:22.789Z,21.80
2023-03-13T21:16:51.752Z,21.70
2023-03-13T21:19:20.632Z,21.70
2023-03-13T21:21:51.453Z,21.70
2023-03-13T21:24:20.663Z,21.70
2023-03-13T21:26:49.566Z,21.60
2023-03-13T21:29:18.482Z,21.60
2023-03-13T21:31:47.449Z,21.60
2023-03-13T21:34:16.330Z,21.60
2023-03-13T21:36:45.239Z,21.60
2023-03-13T21:39:14.144Z,21.60
2023-03-13T21:41:43.089Z,21.50
2023-03-13T21:44:12.379Z,21.60
2023-03-13T21:46:41.284Z,21.50
2023-03-13T21:49:10.228Z,21.50
2023-03-13T21:51:39.318Z,21.50
2023-03-13T21:54:08.267Z,21.50
2023-03-13T21:56:37.268Z,21.50
2023-03-13T21:59:06.113Z,21.50
2023-03-13T22:01:35.027Z,21.50
2023-03-13T22:04:03.916Z,21.50
2023-03-13T22:06:32.877Z,21.50
2023-03-13T22:09:03.082Z,21.40
2023-03-13T22:11:31.989Z,21.40
2023-03-13T22:14:00.960Z,21.40
2023-03-13T22:16:30.565Z,21.40
2023-03-13T22:18:59.485Z,21.40
2023-03-13T22:21:28.400Z,21.40
2023-03-13T22:23:57.321Z,21.40
2023-03-13T22:26:26.426Z,21.40
2023-03-13T22:28:55.324Z,21.30
2023-03-13T22:31:24.201Z,21.30
2023-03-13T22:33:53.147Z,21.30
2023-03-13T22:36:22.031Z,21.30
2023-03-13T22:38:51.065Z,21.30
2023-03-13T22:41:20.021Z,21.30
2023-03-13T22:43:48.984Z,21.30
2023-03-13T22:46:17.944Z,21.30
2023-03-13T22:48:47.160Z,21.20
2023-03-13T22:51:17.295Z,21.20
2023-03-13T22:53:46.170Z,21.20
2023-03-13T22:56:15.076Z,21.20
2023-03-13T22:58:44.415Z,21.10
2023-03-13T23:01:16.971Z,21.10
2023-03-13T23:03:46.870Z,21.20
2023-03-13T23:06:21.532Z,21.20
2023-03-13T23:08:50.740Z,21.10
2023-03-13T23:11:21.092Z,21.10
2023-03-13T23:13:50.029Z,21.10
2023-03-13T23:16:19.061Z,21.00
2023-03-13T23:18:47.957Z,21.10
2023-03-13T23:21:17.648Z,21.00
2023-03-13T23:23:48.176Z,21.00
2023-03-13T23:26:17.966Z,21.00
2023-03-13T23:28:46.897Z,21.00
2023-03-13T23:31:19.162Z,20.90
2023-03-13T23:33:48.706Z,20.90
2023-03-13T23:36:20.066Z,20.80
2023-03-13T23:38:54.478Z,20.80
2023-03-13T23:41:23.634Z,20.80
2023-03-13T23:43:52.637Z,20.80
2023-03-13T23:46:29.317Z,20.80
2023-03-13T23:49:00.669Z,20.80
2023-03-13T23:51:29.627Z,20.80
2023-03-13T23:53:58.570Z,20.80
2023-03-13T23:56:27.553Z,20.80
2023-03-13T23:58:57.038Z,20.80
